Time;durP1;ratioP1;P1;durP2;ratioP2;P2;SDS_P1;SDS_P2;PMS_P1;PMS_P2;Temp;Humidity;BMP_temperature;BMP_pressure;BME280_temperature;BME280_humidity;BME280_pressure;Samples;Min_cycle;Max_cycle;Signal;HPM_P1;HPM_P2
2022/10/02 00:00:00;;;;;;;9.82;4.72;;;;;;;17.77;52.08;93414.75;5029971;28;20786;-90
2022/10/02 00:02:34;;;;;;;8.98;4.95;;;;;;;17.76;51.75;93429.66;5012523;28;20067;-89
2022/10/02 00:05:06;;;;;;;12.45;4.90;;;;;;;17.76;52.18;93428.91;5013693;28;20033;-89
2022/10/02 00:07:48;;;;;;;11.13;4.47;;;;;;;17.76;51.79;93426.94;5046647;28;20049;-89
2022/10/02 00:10:43;;;;;;;9.88;4.78;;;;;;;17.75;51.81;93414.50;5024925;28;20093;-86
2022/10/02 00:13:18;;;;;;;7.43;4.10;;;;;;;17.76;51.94;93434.38;5054383;28;20668;-86
2022/10/02 00:15:43;;;;;;;8.95;4.60;;;;;;;17.75;52.08;93427.47;5023829;28;20091;-86
2022/10/02 00:18:13;;;;;;;9.18;4.50;;;;;;;17.74;51.93;93432.19;5012496;28;20348;-89
2022/10/02 00:20:56;;;;;;;9.90;4.47;;;;;;;17.75;51.68;93449.34;5013024;28;20045;-88
2022/10/02 00:23:30;;;;;;;7.05;3.90;;;;;;;17.75;52.05;93446.59;5014371;28;20304;-87
2022/10/02 00:26:01;;;;;;;8.60;4.32;;;;;;;17.74;51.72;93456.78;5013717;28;20084;-86
2022/10/02 00:28:30;;;;;;;8.38;4.45;;;;;;;17.74;51.72;93464.25;5013851;28;20037;-86
2022/10/02 00:31:01;;;;;;;7.88;4.00;;;;;;;17.73;52.25;93470.97;5029085;28;20120;-89
2022/10/02 00:33:38;;;;;;;9.77;4.35;;;;;;;17.73;51.84;93477.19;5028874;28;20044;-88
2022/10/02 00:36:11;;;;;;;8.02;3.65;;;;;;;17.74;51.95;93472.47;5013270;28;20033;-87
2022/10/02 00:38:46;;;;;;;7.18;3.80;;;;;;;17.75;51.98;93476.69;5012284;28;20411;-89
2022/10/02 00:41:25;;;;;;;8.52;4.22;;;;;;;17.73;51.59;93479.91;5027952;28;20044;-89
2022/10/02 00:44:22;;;;;;;8.75;4.10;;;;;;;17.74;52.09;93492.34;5045559;28;20037;-86
2022/10/02 00:46:57;;;;;;;7.63;4.05;;;;;;;17.75;51.40;93493.09;5042222;28;20044;-88
2022/10/02 00:49:25;;;;;;;8.32;3.92;;;;;;;17.74;51.75;93494.31;5046314;28;20047;-88
2022/10/02 00:52:09;;;;;;;9.73;4.00;;;;;;;17.73;52.02;93481.91;5046095;28;20049;-87
2022/10/02 00:54:49;;;;;;;7.38;3.80;;;;;;;17.74;51.86;93488.84;5028781;28;20041;-86
2022/10/02 00:57:15;;;;;;;7.43;3.92;;;;;;;17.74;51.81;93486.88;5042852;28;20373;-89
2022/10/02 01:00:09;;;;;;;7.50;4.20;;;;;;;17.74;51.84;93483.38;5041975;28;20048;-89
2022/10/02 01:02:35;;;;;;;7.15;3.55;;;;;;;17.75;51.77;93482.16;5044984;28;20065;-86
2022/10/02 01:05:02;;;;;;;7.35;3.30;;;;;;;17.73;51.73;93501.78;5046453;28;20067;-89
2022/10/02 01:07:27;;;;;;;7.90;3.58;;;;;;;17.72;52.09;93491.34;5046322;28;20041;-87
2022/10/02 01:09:52;;;;;;;7.78;3.70;;;;;;;17.73;51.81;93504.53;5028670;28;20396;-88
2022/10/02 01:12:18;;;;;;;6.80;3.53;;;;;;;17.74;51.75;93497.06;5028216;28;20147;-87
2022/10/02 01:14:43;;;;;;;5.65;3.00;;;;;;;17.74;52.05;93499.78;5045379;28;20033;-86
2022/10/02 01:17:29;;;;;;;7.47;3.55;;;;;;;17.73;51.66;93507.25;5038692;28;20045;-86
2022/10/02 01:19:54;;;;;;;8.05;3.80;;;;;;;17.72;51.76;93503.03;5042525;28;20530;-85
2022/10/02 01:22:31;;;;;;;6.20;3.22;;;;;;;17.72;51.94;93505.03;5028444;28;20120;-89
2022/10/02 01:24:56;;;;;;;6.30;3.28;;;;;;;17.73;51.88;93498.31;5029120;28;20063;-90
2022/10/02 01:27:22;;;;;;;6.95;3.65;;;;;;;17.75;52.05;93502.00;5028280;28;20507;-86
2022/10/02 01:29:54;;;;;;;6.70;3.40;;;;;;;17.74;51.68;93497.06;5028427;28;20504;-90
2022/10/02 01:32:20;;;;;;;4.97;2.60;;;;;;;17.73;51.82;93507.25;5044856;28;20430;-88
2022/10/02 01:34:46;;;;;;;7.97;3.60;;;;;;;17.73;51.75;93511.97;5028700;28;20098;-86
2022/10/02 01:37:11;;;;;;;5.70;3.05;;;;;;;17.77;51.79;93515.91;5044600;28;20037;-89
2022/10/02 01:39:37;;;;;;;5.28;3.00;;;;;;;17.74;51.68;93518.94;5028272;28;20496;-87
2022/10/02 01:42:02;;;;;;;5.03;2.85;;;;;;;17.74;51.70;93525.16;5028953;28;20041;-86
2022/10/02 01:44:28;;;;;;;5.38;2.95;;;;;;;17.73;52.11;93520.19;5032547;28;20044;-88
2022/10/02 01:47:11;;;;;;;6.38;2.90;;;;;;;17.72;51.72;93527.63;5028828;28;20045;-89
2022/10/02 01:50:06;;;;;;;5.28;2.92;;;;;;;17.74;51.77;93524.41;5031415;28;20037;-87
2022/10/02 01:53:02;;;;;;;6.15;3.08;;;;;;;17.73;51.78;93531.84;5047960;28;20262;-89
2022/10/02 01:55:44;;;;;;;7.07;3.03;;;;;;;17.75;51.60;93521.13;5048328;28;20160;-86
2022/10/02 01:58:31;;;;;;;6.03;2.88;;;;;;;17.73;51.82;93517.44;5031565;28;20056;-87
2022/10/02 02:01:03;;;;;;;5.85;2.85;;;;;;;17.70;52.04;93516.47;5048814;28;20052;-87
2022/10/02 02:03:47;;;;;;;4.90;2.67;;;;;;;17.73;51.63;93525.66;5031661;28;20037;-88
2022/10/02 02:06:40;;;;;;;5.05;2.88;;;;;;;17.71;51.87;93523.41;5031548;28;20379;-89
2022/10/02 02:09:13;;;;;;;5.60;3.05;;;;;;;17.71;51.96;93528.88;5050722;28;20048;-87
2022/10/02 02:11:40;;;;;;;6.43;3.00;;;;;;;17.71;51.93;93530.88;5048843;28;20350;-89
2022/10/02 02:14:16;;;;;;;5.35;2.67;;;;;;;17.71;51.94;93533.59;5031991;28;20044;-88
2022/10/02 02:16:48;;;;;;;6.78;3.15;;;;;;;17.70;51.95;93538.34;5033143;28;20056;-87
2022/10/02 02:19:15;;;;;;;4.72;2.60;;;;;;;17.71;51.79;93526.16;5031040;28;20450;-86
2022/10/02 02:21:44;;;;;;;7.13;2.95;;;;;;;17.70;52.09;93532.88;5048407;28;20087;-86
2022/10/02 02:24:14;;;;;;;5.18;2.55;;;;;;;17.72;52.09;93538.56;5015225;28;20064;-86
2022/10/02 02:26:42;;;;;;;6.60;2.85;;;;;;;17.71;51.70;93537.09;5021595;28;20047;-86
2022/10/02 02:29:08;;;;;;;3.35;2.15;;;;;;;17.70;52.06;93541.06;5044523;28;20076;-89
2022/10/02 02:31:39;;;;;;;5.63;2.90;;;;;;;17.70;51.77;93543.06;5031623;28;20080;-87
2022/10/02 02:34:08;;;;;;;3.70;2.58;;;;;;;17.74;51.86;93547.03;5031294;28;20030;-88
2022/10/02 02:36:37;;;;;;;4.25;2.05;;;;;;;17.73;51.80;93547.53;5020504;28;20045;-90
2022/10/02 02:39:06;;;;;;;4.38;2.38;;;;;;;17.71;52.00;93542.56;5047735;28;20049;-84
2022/10/02 02:41:36;;;;;;;6.03;2.80;;;;;;;17.73;51.72;93553.00;5044434;28;20607;-89
2022/10/02 02:44:05;;;;;;;4.20;2.42;;;;;;;17.74;52.05;93563.44;5048045;28;20548;-89
2022/10/02 02:47:02;;;;;;;4.15;2.22;;;;;;;17.70;52.11;93554.72;5045131;28;20045;-86
2022/10/02 02:49:26;;;;;;;4.90;2.45;;;;;;;17.71;51.95;93555.47;5033566;28;20178;-86
2022/10/02 02:51:51;;;;;;;4.45;2.45;;;;;;;17.71;52.01;93555.47;5031700;28;20068;-88
2022/10/02 02:54:21;;;;;;;4.93;2.58;;;;;;;17.71;51.76;93563.69;5060457;28;20395;-89
2022/10/02 02:56:47;;;;;;;4.05;2.45;;;;;;;17.69;51.59;93572.38;5058053;28;20139;-89
2022/10/02 02:59:14;;;;;;;4.38;2.47;;;;;;;17.70;51.73;93571.13;5013626;28;20049;-88
2022/10/02 03:01:40;;;;;;;4.38;2.53;;;;;;;17.70;51.93;93568.41;5031020;28;20044;-88
2022/10/02 03:04:05;;;;;;;3.75;2.28;;;;;;;17.72;51.89;93573.38;5030503;28;20033;-87
2022/10/02 03:06:39;;;;;;;4.35;1.95;;;;;;;17.70;51.97;93568.41;5038646;28;20506;-87
2022/10/02 03:09:06;;;;;;;3.58;2.00;;;;;;;17.72;51.67;93571.38;5031014;28;20048;-86
2022/10/02 03:11:57;;;;;;;3.80;2.35;;;;;;;17.70;51.97;93564.94;5014089;28;20608;-90
2022/10/02 03:14:39;;;;;;;4.35;2.10;;;;;;;17.70;51.65;93559.47;5030179;28;20049;-87
2022/10/02 03:17:39;;;;;;;3.72;2.13;;;;;;;17.69;51.76;93564.19;5050221;28;20041;-89
2022/10/02 03:20:26;;;;;;;3.70;1.93;;;;;;;17.69;51.78;93563.44;5044742;28;20087;-88
2022/10/02 03:22:54;;;;;;;3.10;1.77;;;;;;;17.70;52.04;93571.13;5032593;28;20561;-89
2022/10/02 03:25:20;;;;;;;4.60;2.22;;;;;;;17.70;51.83;93571.13;5046366;28;20029;-86
2022/10/02 03:27:51;;;;;;;5.15;2.10;;;;;;;17.69;51.97;93569.66;5048062;28;20040;-86
2022/10/02 03:30:20;;;;;;;5.70;2.10;;;;;;;17.71;51.54;93569.91;5045936;28;20563;-90
2022/10/02 03:32:47;;;;;;;4.78;2.38;;;;;;;17.69;51.58;93572.38;5044414;28;20461;-87
2022/10/02 03:35:12;;;;;;;3.55;1.95;;;;;;;17.69;51.62;93569.66;5029682;28;20037;-89
2022/10/02 03:37:41;;;;;;;4.45;2.17;;;;;;;17.68;51.92;93568.16;5030282;28;20500;-87
2022/10/02 03:40:08;;;;;;;3.83;2.13;;;;;;;17.72;51.97;93570.63;5030220;28;20587;-90
2022/10/02 03:42:34;;;;;;;3.65;2.28;;;;;;;17.71;51.99;93569.91;5043545;28;20810;-89
2022/10/02 03:44:59;;;;;;;3.67;2.05;;;;;;;17.69;52.08;93566.91;5030059;28;20029;-87
2022/10/02 03:47:25;;;;;;;4.70;2.53;;;;;;;17.70;51.72;93573.13;5046112;28;20041;-89
2022/10/02 03:49:50;;;;;;;2.88;1.80;;;;;;;17.68;52.00;93554.50;5030676;28;20049;-86
2022/10/02 03:52:17;;;;;;;3.42;1.80;;;;;;;17.69;51.70;93566.16;5046193;28;20454;-86
2022/10/02 03:54:42;;;;;;;4.78;2.03;;;;;;;17.69;52.00;93558.72;5029490;28;20373;-90
2022/10/02 03:57:14;;;;;;;2.97;1.73;;;;;;;17.70;51.78;93551.25;5045650;28;20044;-86
2022/10/02 03:59:47;;;;;;;2.60;1.67;;;;;;;17.70;51.81;93556.72;5029877;28;20029;-88
2022/10/02 04:02:22;;;;;;;3.13;1.70;;;;;;;17.68;51.69;93543.56;5029568;28;20045;-88
2022/10/02 04:04:53;;;;;;;3.17;1.80;;;;;;;17.69;51.62;93553.25;5046315;28;20052;-86
2022/10/02 04:07:21;;;;;;;4.10;2.03;;;;;;;17.67;51.80;93549.53;5037389;28;20127;-88
2022/10/02 04:09:58;;;;;;;3.92;1.83;;;;;;;17.68;51.89;93543.56;5046550;28;20048;-89
2022/10/02 04:12:30;;;;;;;2.63;1.60;;;;;;;17.69;51.91;93544.31;5045563;28;20053;-86
2022/10/02 04:15:06;;;;;;;3.15;1.73;;;;;;;17.69;51.64;93544.31;5046697;28;20821;-90
2022/10/02 04:17:42;;;;;;;2.85;1.60;;;;;;;17.69;51.88;93545.03;5039525;28;20045;-87
2022/10/02 04:20:27;;;;;;;3.45;2.10;;;;;;;17.70;51.81;93538.34;5030440;28;20112;-87
2022/10/02 04:22:52;;;;;;;3.13;1.73;;;;;;;17.69;52.02;93560.69;5031288;28;20142;-89
2022/10/02 04:25:19;;;;;;;5.05;1.92;;;;;;;17.70;51.89;93551.25;5047078;28;20476;-88
2022/10/02 04:28:00;;;;;;;2.58;1.55;;;;;;;17.66;51.76;93546.03;5046098;28;20579;-89
2022/10/02 04:30:26;;;;;;;3.25;1.77;;;;;;;17.70;52.07;93557.47;5029404;28;20739;-86
2022/10/02 04:32:52;;;;;;;2.78;1.73;;;;;;;17.67;51.93;93558.47;5045699;28;20044;-89
2022/10/02 04:35:24;;;;;;;2.65;1.67;;;;;;;17.68;51.81;93557.22;5045352;28;20409;-87
2022/10/02 04:38:17;;;;;;;2.47;1.67;;;;;;;17.67;52.10;93553.00;5045927;28;20051;-86
2022/10/02 04:40:49;;;;;;;3.15;1.65;;;;;;;17.70;51.82;93557.47;5046560;28;20045;-87
2022/10/02 04:43:36;;;;;;;1.67;1.20;;;;;;;17.69;52.10;93563.44;5046048;28;20061;-89
2022/10/02 04:46:17;;;;;;;2.83;1.40;;;;;;;17.65;52.21;93558.22;5045729;28;20144;-89
2022/10/02 04:48:48;;;;;;;2.83;1.67;;;;;;;17.71;51.63;93560.94;5044837;28;20399;-87
2022/10/02 04:51:35;;;;;;;3.30;1.50;;;;;;;17.67;51.90;93553.00;5046192;28;20530;-89
2022/10/02 04:54:20;;;;;;;2.42;1.52;;;;;;;17.67;51.83;93555.72;5043671;28;20515;-88
2022/10/02 04:56:49;;;;;;;3.60;1.45;;;;;;;17.68;51.79;93551.00;5045371;28;20045;-87
2022/10/02 04:59:35;;;;;;;4.25;1.58;;;;;;;17.66;51.84;93561.69;5045724;28;20103;-87
2022/10/02 05:02:24;;;;;;;2.20;1.20;;;;;;;17.66;51.72;93558.97;5031268;28;20091;-86
2022/10/02 05:04:53;;;;;;;3.03;1.70;;;;;;;17.66;52.00;93562.44;5031408;28;20029;-89
2022/10/02 05:07:34;;;;;;;1.83;1.35;;;;;;;17.68;52.11;93554.50;5027576;28;20045;-86
2022/10/02 05:10:27;;;;;;;3.40;1.58;;;;;;;17.68;51.75;93561.94;5046866;28;20069;-89
2022/10/02 05:13:04;;;;;;;2.35;1.17;;;;;;;17.68;52.24;93554.50;5046380;28;20037;-90
2022/10/02 05:15:44;;;;;;;2.50;1.50;;;;;;;17.67;52.05;93569.41;5028012;28;20114;-86
2022/10/02 05:18:18;;;;;;;2.47;1.27;;;;;;;17.68;51.95;93573.63;5058999;28;20510;-89
2022/10/02 05:20:57;;;;;;;2.50;1.30;;;;;;;17.65;51.71;93569.16;5056939;28;20527;-87
2022/10/02 05:23:44;;;;;;;1.50;1.10;;;;;;;17.66;52.13;93558.97;5031909;28;20134;-86
2022/10/02 05:26:19;;;;;;;2.45;1.50;;;;;;;17.65;51.80;93558.22;5025223;28;20524;-86
2022/10/02 05:28:57;;;;;;;2.65;1.38;;;;;;;17.70;51.68;93559.47;5048886;28;20509;-86
2022/10/02 05:31:48;;;;;;;1.90;1.10;;;;;;;17.68;51.69;93559.22;5016590;28;20075;-87
2022/10/02 05:34:30;;;;;;;2.30;1.20;;;;;;;17.69;51.79;93557.97;5043890;28;20063;-86
2022/10/02 05:37:17;;;;;;;1.88;1.08;;;;;;;17.69;51.82;93560.69;5050195;28;20468;-89
2022/10/02 05:39:52;;;;;;;2.10;1.30;;;;;;;17.67;51.80;93565.94;5034430;28;20087;-87
2022/10/02 05:42:37;;;;;;;2.45;1.23;;;;;;;17.68;51.91;93572.88;4999166;28;20037;-89
2022/10/02 05:45:20;;;;;;;1.98;1.10;;;;;;;17.65;51.68;93566.44;5016476;28;20033;-89
2022/10/02 05:47:45;;;;;;;2.33;1.42;;;;;;;17.65;52.07;93558.22;5032191;28;20048;-89
2022/10/02 05:50:11;;;;;;;2.05;1.50;;;;;;;17.65;51.73;93555.50;5031484;28;20041;-88
2022/10/02 05:52:37;;;;;;;1.60;1.13;;;;;;;17.65;51.87;93560.22;5050006;28;20029;-86
2022/10/02 05:55:14;;;;;;;2.85;1.27;;;;;;;17.66;51.97;93561.69;5030932;28;20064;-86
2022/10/02 05:57:43;;;;;;;1.92;1.20;;;;;;;17.63;51.78;93566.16;5058457;28;20041;-88
2022/10/02 06:00:16;;;;;;;2.50;1.10;;;;;;;17.67;51.93;93568.66;5025247;28;20112;-89
2022/10/02 06:03:16;;;;;;;1.80;1.50;;;;;;;17.67;52.03;93576.88;5028141;28;20091;-86
2022/10/02 06:05:43;;;;;;;1.88;1.10;;;;;;;17.66;52.00;93573.38;5045533;28;20045;-89
2022/10/02 06:08:11;;;;;;;1.92;1.40;;;;;;;17.63;51.76;93579.81;5048566;28;20603;-85
2022/10/02 06:10:42;;;;;;;1.50;1.13;;;;;;;17.66;52.08;93575.38;5030925;28;20072;-88
2022/10/02 06:13:13;;;;;;;1.70;0.98;;;;;;;17.67;51.75;93577.59;5030910;28;20576;-86
2022/10/02 06:15:40;;;;;;;2.15;0.98;;;;;;;17.65;52.17;93573.88;5049413;28;20454;-88
2022/10/02 06:18:08;;;;;;;1.85;1.15;;;;;;;17.64;52.06;93580.56;5048240;28;20484;-87
2022/10/02 06:20:39;;;;;;;1.05;0.82;;;;;;;17.65;51.85;93582.09;5015473;28;20049;-87
2022/10/02 06:23:06;;;;;;;1.40;1.00;;;;;;;17.65;51.72;93587.56;4998186;28;20056;-85
2022/10/02 06:25:51;;;;;;;1.67;1.08;;;;;;;17.65;51.92;93587.56;5033764;28;20098;-86
2022/10/02 06:28:21;;;;;;;1.92;0.77;;;;;;;17.66;51.93;93589.03;5030728;28;20534;-88
2022/10/02 06:30:53;;;;;;;1.73;1.30;;;;;;;17.67;52.10;93590.53;5041517;28;20052;-89
2022/10/02 06:33:22;;;;;;;2.08;1.17;;;;;;;17.66;51.92;93594.50;5030425;28;20045;-86
2022/10/02 06:35:59;;;;;;;1.73;1.00;;;;;;;17.66;51.80;93589.78;5031292;28;20047;-90
2022/10/02 06:38:39;;;;;;;2.75;1.30;;;;;;;17.65;52.12;93593.03;5031488;28;20115;-86
2022/10/02 06:41:37;;;;;;;1.73;0.90;;;;;;;17.67;51.59;93596.75;5048354;28;20103;-87
2022/10/02 06:44:11;;;;;;;1.92;1.00;;;;;;;17.68;51.72;93592.03;5031042;28;20079;-87
2022/10/02 06:46:49;;;;;;;1.80;0.95;;;;;;;17.66;52.04;93589.03;5048358;28;20049;-88
2022/10/02 06:49:45;;;;;;;1.40;1.00;;;;;;;17.66;52.12;93600.72;5047730;28;20051;-88
2022/10/02 06:52:11;;;;;;;1.65;1.02;;;;;;;17.67;51.49;93606.94;5017107;28;20055;-85
2022/10/02 06:55:14;;;;;;;1.70;0.93;;;;;;;17.65;52.07;93615.63;5048160;28;20361;-86
2022/10/02 06:58:00;;;;;;;1.45;0.82;;;;;;;17.65;52.11;93615.63;5048401;28;20612;-85
2022/10/02 07:00:25;;;;;;;1.40;0.90;;;;;;;17.65;52.13;93601.22;5015918;28;20064;-87
2022/10/02 07:03:02;;;;;;;1.50;1.15;;;;;;;17.66;52.11;93616.38;4997783;28;20048;-86
2022/10/02 07:05:37;;;;;;;1.83;0.85;;;;;;;17.67;51.99;93598.72;5031019;28;20070;-86
2022/10/02 07:08:10;;;;;;;1.20;0.80;;;;;;;17.66;52.13;93605.44;5047871;28;20045;-88
2022/10/02 07:10:42;;;;;;;1.38;0.90;;;;;;;17.65;52.18;93599.22;5015131;28;20759;-86
2022/10/02 07:13:25;;;;;;;2.38;1.10;;;;;;;17.67;51.98;93607.69;5047506;28;20041;-86
2022/10/02 07:16:07;;;;;;;1.90;1.00;;;;;;;17.67;51.89;93604.94;5031836;28;20086;-89
2022/10/02 07:18:45;;;;;;;2.17;0.93;;;;;;;17.67;52.19;93612.41;5026130;28;20523;-86
2022/10/02 07:21:23;;;;;;;2.50;0.82;;;;;;;17.67;51.98;93609.66;5047603;28;20486;-89
2022/10/02 07:23:49;;;;;;;2.30;0.90;;;;;;;17.66;51.78;93614.38;5030250;28;20040;-85
2022/10/02 07:26:17;;;;;;;1.38;0.80;;;;;;;17.66;51.92;93602.72;5047320;28;20047;-86
2022/10/02 07:29:08;;;;;;;0.77;0.68;;;;;;;17.66;52.11;93605.44;5030318;28;20408;-87
2022/10/02 07:32:11;;;;;;;2.20;1.00;;;;;;;17.68;51.88;93598.22;5042120;28;20052;-90
2022/10/02 07:34:53;;;;;;;0.80;0.63;;;;;;;17.68;52.00;93600.97;5012513;28;20436;-89
2022/10/02 07:37:21;;;;;;;1.77;1.00;;;;;;;17.65;52.34;93599.22;5030081;28;20051;-89
2022/10/02 07:40:10;;;;;;;1.40;0.90;;;;;;;17.66;52.00;93603.47;5048076;28;20512;-89
2022/10/02 07:42:52;;;;;;;1.83;1.15;;;;;;;17.66;51.98;93613.66;4997218;28;20424;-89
2022/10/02 07:45:26;;;;;;;2.15;0.98;;;;;;;17.68;51.66;93609.16;5013378;28;20091;-87
2022/10/02 07:48:06;;;;;;;1.80;0.70;;;;;;;17.68;51.88;93600.97;5013646;28;20048;-87
2022/10/02 07:50:44;;;;;;;2.45;0.85;;;;;;;17.68;52.21;93611.91;5046142;28;20053;-87
2022/10/02 07:53:19;;;;;;;2.30;1.30;;;;;;;17.65;52.13;93601.97;5029501;28;20108;-86
2022/10/02 07:55:49;;;;;;;1.05;0.73;;;;;;;17.65;52.34;93598.50;5013834;28;20130;-88
2022/10/02 07:58:21;;;;;;;1.07;0.70;;;;;;;17.67;52.00;93596.00;5012527;28;20057;-86
2022/10/02 08:00:49;;;;;;;1.10;0.80;;;;;;;17.63;52.00;93598.97;5029558;28;20079;-87
2022/10/02 08:03:24;;;;;;;1.33;0.88;;;;;;;17.64;52.35;93603.22;5028841;28;20138;-88
2022/10/02 08:05:51;;;;;;;2.92;0.90;;;;;;;17.65;52.27;93601.22;5029714;28;20098;-86
2022/10/02 08:08:29;;;;;;;0.90;0.68;;;;;;;17.64;51.92;93607.91;5012334;28;20554;-89
2022/10/02 08:11:04;;;;;;;1.35;0.75;;;;;;;17.64;52.27;93619.59;5031019;28;20048;-87
2022/10/02 08:13:38;;;;;;;1.90;1.08;;;;;;;17.64;51.92;93611.41;5013091;28;20558;-86
2022/10/02 08:16:04;;;;;;;1.60;0.70;;;;;;;17.65;52.01;93606.69;5027240;28;20119;-89
2022/10/02 08:18:42;;;;;;;2.80;1.00;;;;;;;17.63;51.94;93607.16;5042235;28;20036;-85
2022/10/02 08:21:13;;;;;;;2.22;0.70;;;;;;;17.63;52.22;93598.97;5000267;28;20055;-86
2022/10/02 08:23:48;;;;;;;1.65;0.73;;;;;;;17.63;51.92;93598.97;5013747;28;20045;-87
2022/10/02 08:26:35;;;;;;;0.88;0.65;;;;;;;17.63;52.19;93604.44;5013060;28;20036;-87
2022/10/02 08:29:14;;;;;;;1.13;0.63;;;;;;;17.66;51.78;93608.19;5031262;28;20276;-89
2022/10/02 08:31:39;;;;;;;1.75;0.70;;;;;;;17.65;51.72;93604.69;5024008;28;20061;-86
2022/10/02 08:34:16;;;;;;;1.45;0.70;;;;;;;17.66;52.13;93602.72;5045193;28;20407;-89
2022/10/02 08:36:53;;;;;;;0.98;0.80;;;;;;;17.64;52.31;93599.69;5029370;28;20037;-89
2022/10/02 08:39:40;;;;;;;1.50;0.70;;;;;;;17.67;52.20;93604.19;5044912;28;20048;-87
2022/10/02 08:42:15;;;;;;;2.75;0.90;;;;;;;17.65;52.16;93614.88;5046356;28;20056;-88
2022/10/02 08:45:05;;;;;;;1.08;0.70;;;;;;;17.65;52.11;93609.41;5029490;28;20040;-87
2022/10/02 08:47:55;;;;;;;1.10;0.80;;;;;;;17.65;52.28;93615.63;5045914;28;20087;-89
2022/10/02 08:50:34;;;;;;;1.50;0.85;;;;;;;17.65;52.01;93614.88;5028126;28;20076;-89
2022/10/02 08:53:24;;;;;;;1.10;0.80;;;;;;;17.64;52.28;93610.63;5009552;28;20095;-86
2022/10/02 08:56:12;;;;;;;0.90;0.73;;;;;;;17.64;52.28;93610.63;5040166;28;20390;-86
2022/10/02 08:59:17;;;;;;;1.42;0.55;;;;;;;17.64;52.02;93614.16;5045978;28;20041;-89
2022/10/02 09:02:01;;;;;;;1.00;0.65;;;;;;;17.64;52.02;93619.59;5031441;28;20045;-88
2022/10/02 09:04:39;;;;;;;0.93;0.70;;;;;;;17.64;52.38;93621.56;5046172;28;20064;-89
2022/10/02 09:07:20;;;;;;;0.90;0.70;;;;;;;17.66;52.24;93608.19;5029881;28;20071;-86
2022/10/02 09:10:09;;;;;;;1.45;0.77;;;;;;;17.63;52.34;93596.22;5050693;28;20089;-86
2022/10/02 09:13:12;;;;;;;1.38;0.60;;;;;;;17.66;51.99;93599.97;5035121;28;20029;-90
2022/10/02 09:15:50;;;;;;;1.42;0.80;;;;;;;17.66;52.38;93605.44;5046734;28;20045;-89
2022/10/02 09:18:52;;;;;;;1.08;0.60;;;;;;;17.64;52.29;93608.69;5046848;28;20040;-86
2022/10/02 09:21:19;;;;;;;1.55;0.73;;;;;;;17.65;52.60;93606.69;5029669;28;20527;-87
2022/10/02 09:24:07;;;;;;;2.47;0.88;;;;;;;17.64;52.08;93603.22;4996472;28;20036;-87
2022/10/02 09:26:41;;;;;;;1.23;0.70;;;;;;;17.67;51.89;93601.47;5028255;28;20037;-86
2022/10/02 09:29:19;;;;;;;1.42;0.80;;;;;;;17.65;52.21;93593.03;5028155;28;20045;-88
2022/10/02 09:32:23;;;;;;;0.70;0.60;;;;;;;17.66;52.04;93591.78;5028392;28;20521;-87
2022/10/02 09:35:27;;;;;;;0.82;0.63;;;;;;;17.65;51.99;93593.75;5031033;28;20521;-88
2022/10/02 09:38:10;;;;;;;1.02;0.60;;;;;;;17.64;52.14;93597.75;5046789;28;20048;-88
2022/10/02 09:40:57;;;;;;;1.05;0.60;;;;;;;17.65;52.04;93593.75;5044741;28;20041;-90
2022/10/02 09:43:42;;;;;;;1.15;0.70;;;;;;;17.66;52.30;93587.06;5045941;28;20120;-90
2022/10/02 09:46:25;;;;;;;0.88;0.68;;;;;;;17.64;52.33;93592.28;5028180;28;20044;-87
2022/10/02 09:49:12;;;;;;;1.38;0.70;;;;;;;17.65;52.32;93591.03;5050936;28;20111;-88
2022/10/02 09:51:54;;;;;;;0.70;0.55;;;;;;;17.63;52.25;93593.50;5045305;28;20522;-89
2022/10/02 09:54:41;;;;;;;0.80;0.55;;;;;;;17.63;52.03;93588.03;5027999;28;20059;-86
2022/10/02 09:57:18;;;;;;;0.98;0.70;;;;;;;17.64;52.15;93597.75;5045409;28;20086;-86
2022/10/02 09:59:50;;;;;;;1.15;0.85;;;;;;;17.64;52.29;93586.81;5057124;28;20068;-88
2022/10/02 10:02:37;;;;;;;0.55;0.43;;;;;;;17.65;52.57;93588.28;5027817;28;20037;-86
2022/10/02 10:05:24;;;;;;;1.63;0.80;;;;;;;17.64;52.54;93572.38;5047531;28;20106;-86
2022/10/02 10:08:15;;;;;;;1.08;0.60;;;;;;;17.64;52.38;93580.56;5016033;28;20131;-86
2022/10/02 10:10:54;;;;;;;1.58;0.65;;;;;;;17.63;52.05;93579.81;5031109;28;20048;-89
2022/10/02 10:13:32;;;;;;;1.40;0.70;;;;;;;17.64;52.33;93569.63;5031226;28;20049;-86
2022/10/02 10:17:04;;;;;;;0.68;0.60;;;;;;;17.63;52.28;93565.41;5032532;28;20033;-88
2022/10/02 10:19:40;;;;;;;1.67;0.90;;;;;;;17.64;52.17;93580.56;4929728;28;20051;-89
2022/10/02 10:22:38;;;;;;;1.02;0.65;;;;;;;17.64;52.31;93566.91;4944644;29;20577;-89
2022/10/02 10:25:48;;;;;;;1.42;0.63;;;;;;;17.64;52.46;93564.16;4949027;28;20047;-89
2022/10/02 10:28:36;;;;;;;1.02;0.70;;;;;;;17.65;52.28;93565.69;4950626;28;20063;-88
2022/10/02 10:31:29;;;;;;;1.02;0.77;;;;;;;17.63;52.27;93566.16;4948676;28;20157;-89
2022/10/02 10:34:10;;;;;;;1.33;0.75;;;;;;;17.66;52.33;93572.63;4948168;28;20113;-88
2022/10/02 10:39:55;;;;;;;1.10;0.80;;;;;;;17.66;52.26;93572.63;4948107;28;20046;-87
2022/10/02 10:42:49;;;;;;;0.60;0.50;;;;;;;17.63;52.59;93568.88;4948133;28;20110;-86
2022/10/02 10:45:23;;;;;;;0.70;0.60;;;;;;;17.66;52.14;93561.69;4944737;28;20039;-89
2022/10/02 10:48:17;;;;;;;0.65;0.60;;;;;;;17.64;52.53;93551.28;4940794;28;20087;-87
2022/10/02 10:51:13;;;;;;;1.10;0.52;;;;;;;17.65;52.70;93557.47;4936525;28;20036;-89
2022/10/02 10:54:04;;;;;;;1.10;0.52;;;;;;;17.65;52.59;93555.50;5005424;28;20044;-88
2022/10/02 10:56:44;;;;;;;0.60;0.50;;;;;;;17.65;52.41;93547.28;5037999;28;20029;-89
2022/10/02 10:59:41;;;;;;;0.40;0.40;;;;;;;17.66;52.51;93545.31;5014411;28;20049;-87
2022/10/02 11:02:33;;;;;;;0.95;0.52;;;;;;;17.65;52.39;93541.81;5047645;28;20037;-86
2022/10/02 11:05:35;;;;;;;1.27;0.50;;;;;;;17.64;52.09;93550.50;5030656;28;20064;-88
2022/10/02 11:08:13;;;;;;;1.00;0.60;;;;;;;17.65;52.21;93544.56;5030081;28;20511;-88
2022/10/02 11:10:43;;;;;;;0.88;0.60;;;;;;;17.64;52.35;93539.56;5030144;28;20619;-89
2022/10/02 11:13:26;;;;;;;1.23;0.68;;;;;;;17.66;52.16;93535.09;5030431;28;20045;-88
2022/10/02 11:15:58;;;;;;;0.95;0.45;;;;;;;17.65;52.43;93527.41;5047970;28;20037;-89
2022/10/02 11:18:34;;;;;;;0.82;0.45;;;;;;;17.67;52.70;93527.66;5047377;28;20555;-89
2022/10/02 11:21:27;;;;;;;0.95;0.50;;;;;;;17.67;52.47;93524.91;5029984;28;20446;-87
2022/10/02 11:24:18;;;;;;;0.70;0.40;;;;;;;17.65;52.57;93525.41;5032545;28;20105;-89
2022/10/02 11:27:03;;;;;;;0.50;0.50;;;;;;;17.66;52.38;93523.44;5048036;28;20056;-90
2022/10/02 11:29:44;;;;;;;1.40;0.55;;;;;;;17.68;52.58;93518.22;5042964;28;20037;-87
2022/10/02 11:32:27;;;;;;;1.20;0.73;;;;;;;17.66;52.51;93524.19;5038814;28;20043;-88
2022/10/02 11:35:02;;;;;;;1.17;0.52;;;;;;;17.65;52.59;93509.00;5046292;28;20087;-89
2022/10/02 11:37:36;;;;;;;0.93;0.50;;;;;;;17.64;52.39;93502.06;5013907;28;20040;-86
2022/10/02 11:40:11;;;;;;;1.55;0.55;;;;;;;17.67;52.63;93513.97;5047993;28;20065;-89
2022/10/02 11:42:44;;;;;;;1.58;0.60;;;;;;;17.68;52.78;93510.75;5013237;28;20071;-88
2022/10/02 11:45:24;;;;;;;0.65;0.40;;;;;;;17.65;52.59;93503.56;5055433;28;20047;-86
2022/10/02 11:48:11;;;;;;;0.63;0.40;;;;;;;17.68;52.57;93508.00;5021030;28;20186;-86
2022/10/02 11:50:58;;;;;;;0.80;0.50;;;;;;;17.68;52.18;93505.28;5046195;28;20162;-89
2022/10/02 11:53:47;;;;;;;0.63;0.55;;;;;;;17.67;52.65;93500.31;5029490;28;20043;-86
2022/10/02 11:56:45;;;;;;;1.00;0.50;;;;;;;17.65;52.70;93495.34;5031412;28;20033;-89
2022/10/02 11:59:32;;;;;;;0.80;0.50;;;;;;;17.65;52.54;93495.34;5039471;28;20044;-86
2022/10/02 12:02:19;;;;;;;0.63;0.40;;;;;;;17.66;52.46;93504.28;5063210;28;20515;-85
2022/10/02 12:05:22;;;;;;;0.73;0.50;;;;;;;17.67;52.71;93513.97;5029570;28;20389;-88
2022/10/02 12:08:08;;;;;;;0.60;0.60;;;;;;;17.65;52.28;93511.75;5047233;28;20059;-87
2022/10/02 12:10:41;;;;;;;0.30;0.30;;;;;;;17.66;52.30;93512.50;5011073;28;20155;-89
2022/10/02 12:13:15;;;;;;;0.55;0.45;;;;;;;17.64;52.44;93513.00;5013055;28;20049;-89
2022/10/02 12:16:09;;;;;;;0.80;0.65;;;;;;;17.66;52.63;93520.69;5047333;28;20067;-88
2022/10/02 12:18:44;;;;;;;0.60;0.50;;;;;;;17.66;52.23;93513.25;5025867;28;20052;-90
2022/10/02 12:27:41;;;;;;;0.40;0.40;;;;;;;17.66;52.25;93494.09;5012848;28;20047;-86
2022/10/02 12:30:06;;;;;;;;;;;;;;;17.70;52.55;93488.38;5029310;28;20076;-87
2022/10/02 12:32:39;;;;;;;0.90;0.60;;;;;;;17.65;52.25;93478.94;5048525;28;19959;-87